Portada
METAR-TAF:

METAR-TAF

Aeropuertos :

Aeropuerto de Menorca

Menorca, España

latitud: 39-52N, longitud: 004-14E, altitud: 87 m

Observación

El informe se hizo hace 33 minutos, a las 23:00 UTC
Viento 8 kt del oeste-suroeste, variando entre sur-suroeste y oeste
Temperatura 14°C
Humedad 82%
Presión 1020 hPa
Visibilidad 10 km o más

METAR: LEMH 152300Z AUTO 25008KT 210V280 9999 NCD 14/11 Q1020

Hora: 00:33 (23:33 UTC)

Pronóstico

El informe se hizo hace 3 horas y 33 minutos, a las 20:00 UTC
Pronóstico válido del 15 a las 21 UTC al 16 a las 21 UTC
Viento 10 kt del oeste-suroeste
Visibilidad 10 km o más
Escasas nubes a una altura de 2500 ft

TAF: LEMH 152000Z 1521/1621 25010KT 9999 FEW025 TX18/1612Z TN12/1606Z

Observaciones y pronósticos meteorológicos de más de 4000 aeropuertos (mensajes METAR y TAF).

Los puntos amarillos y rojos representan las estaciones disponibles.

Ponga el ratón en el punto deseado para ver el nombre de la estación.

Haga clic para ver las observaciones y los pronósticos meteorológicos.

Para cambiar el mapa : haga clic en los botones verdes con una cruz de color negro para hacer un zoom, en el botón verde con un guión para alejar o en las flechas verdes para mapas adyacentes.


METAR-TAF: